Bob Sikes Airport Crestview US
ICAO: KCEW
IATA: CEW
Category: Medium
Scheduled Services: No

Elevation: 213 ft
TransAlt. 18000 ft.

Airport Communications:
EGLIN APP/DEP:124.05
ASOS:119.275
GAINESVILLE RDO:122
CTAF/UNICOM:122.95

KCEW Zoom In..

Runways:

(A) RW 17 length 8004 ft width 150 ft
ILS 111.90 / hdg 171

(B) RW 35 length 8004 ft width 150 ft
---- / hdg 351

Location; KCEW
Day. 23 / Time. 09.53 Zulu
* Altimeter: 29.82
* Temperature: 23° c. 73.4°f.
* Wind from: 350° Speed 03 kn.
Dewpoint: 21° c.
Visibility: 10 Statute Miles.
Clouds: Clear (automated report).

KCEW 230953Z AUTO 35003KT 10SM CLR 23/21 A2982 RMK AO2 SLP094 T02330206 TSNO $


Wind From 350°
Speed 03 kn.

 
 
jpsmedia.com for Web Design worldairports.se 2018   terms of use